Main page
METAR-TAF:

METAR-TAF

Airports :

Fukuoka Airport

Fukuoka, Japan

latitude: 33-35N, longitude: 130-27E, elevation: 9 m

Current weather observation

The report was made 26 minutes ago, at 09:00 UTC
Wind 13 kt from the North
Temperature 29°C
Humidity 52%
Pressure 1008 hPa
Visibility 10 km or more
Few clouds at a height of 1500 ft

METAR: RJFF 170900Z 36013KT 9999 FEW015 29/18 Q1008 NOSIG RMK 1CU015 A2977

Time: 18:26 (09:26 UTC)

Forecast

The report was made 4 hours and 21 minutes ago, at 05:05 UTC
Forecast valid from 17 at 06 UTC to 18 at 12 UTC
Wind 8 kt from the North/Northeast
Visibility 10 km or more
Few clouds at a height of 3000 ft
Scattered clouds at a height of 4500 ft
Becoming
from 17 at 13 UTC to 17 at 15 UTC
Wind 6 kt from the East/Southeast
Becoming
from 18 at 00 UTC to 18 at 03 UTC
Wind 7 kt from the Northeast
Becoming
from 18 at 09 UTC to 18 at 12 UTC
Wind 5 kt from the Southeast

TAF: RJFF 170505Z 1706/1812 03008KT 9999 FEW030 SCT045 BECMG 1713/1715 12006KT BECMG 1800/1803 05007KT BECMG 1809/1812 14005KT

Weather observations and forecasts of more than 4000 airports (METAR and TAF reports).

The available stations are represented by yellow and red dots on the map.

Hover mouse over dot to see the name of the station.

Then click to see weather observations and forecasts.

To change the map : click on the green buttons with a black cross to zoom in, on the green button with a dash to zoom out, or on the green arrows for adjacent maps.


METAR-TAF: